Hamburg Express — DFKM2 — position and weather

sailwx.info

Track history (hours):
 
Tides and Currents Weather Stations Pressure Air Temp Water Temp Dewpoint Dewpoint Depression Visibility Wind Speed Wind Dir Waves Ship Positions

Hamburg Express

Last reported at 2017-Feb-25 06:33 UTC. Time now 2017-Feb-25 07:26 UTC.
Position N 01°41' E 102°46'.

Length 366 m; draft 15 m.

Type: Cargo ship. MMSI: 218774000.

Date/timePositionNaut miles runAvg speedWind from/ knotsBaromVisibWave heightAir tempDewpointWater temp
2017-Feb-25 06:33N 01°41' E 102°46'5117.1
2017-Feb-25 03:33N 01°13' E 103°29'1414.3
2017-Feb-25 02:33N 01°09' E 103°43'1010.5
2017-Feb-25 01:33N 01°13' E 103°52'4 3.2
2017-Feb-25 00:25N 01°16' E 103°50'0 0.1
2017-Feb-24 23:31N 01°16' E 103°50'0 0.0
2017-Feb-24 22:28N 01°16' E 103°50'0 0.0
2017-Feb-24 21:31N 01°16' E 103°50'0 0.0
2017-Feb-24 20:31N 01°16' E 103°50'0 0.0
2017-Feb-24 19:25N 01°16' E 103°50'0 0.0
2017-Feb-24 18:31N 01°16' E 103°50'0 0.0
2017-Feb-24 17:31N 01°16' E 103°50'0 0.0
2017-Feb-24 16:31N 01°16' E 103°50'0 0.0
2017-Feb-24 15:31N 01°16' E 103°50'0 0.0
2017-Feb-24 14:31N 01°16' E 103°50'0 0.0
2017-Feb-24 13:28N 01°16' E 103°50'0 0.0
2017-Feb-24 12:31N 01°16' E 103°50'0 0.0
2017-Feb-24 11:31N 01°16' E 103°50'0 0.0
2017-Feb-24 10:31N 01°16' E 103°50'0 0.0
2017-Feb-24 09:31N 01°16' E 103°50'0 0.0
2017-Feb-24 08:31N 01°16' E 103°50'0 0.0
2017-Feb-24 07:31N 01°16' E 103°50'0 0.0
2017-Feb-24 06:31N 01°16' E 103°50'0 0.0
2017-Feb-24 05:31N 01°16' E 103°50'0 0.0
2017-Feb-24 04:31N 01°16' E 103°50'0 0.0
2017-Feb-24 03:31N 01°16' E 103°50'0 0.0
2017-Feb-24 02:33N 01°16' E 103°50'1 1.4
2017-Feb-24 01:33N 01°15' E 103°51'3 2.7
2017-Feb-24 00:33N 01°14' E 103°53'5 4.7
2017-Feb-23 23:33N 01°15' E 103°58'1613.1
2017-Feb-23 22:21N 01°18' E 104°14'19018.4
2017-Feb-23 12:00N 04°06' E 105°42'10317.2 040 / 141011.4 5.4 25.923.425.9
2017-Feb-23 06:00N 05°30' E 106°42'22819.0 360 / 61013.0 5.4 29.423.825.2
2017-Feb-22 18:00N 08°48' E 108°36'   070 / 151012.510.8 25.224.324.8
2017-Feb-19 08:30N 22°28' E 119°45'1819.2
2017-Feb-19 07:33N 22°31' E 120°05'1413.8
2017-Feb-19 06:33N 22°33' E 120°19'1 1.3
2017-Feb-19 05:32N 22°34' E 120°19'0 0.0
2017-Feb-19 04:29N 22°34' E 120°19'0 0.0
2017-Feb-19 03:32N 22°34' E 120°19'0 0.0
2017-Feb-19 02:32N 22°34' E 120°19'0 0.0
2017-Feb-19 01:32N 22°34' E 120°19'0 0.0
2017-Feb-19 00:29N 22°34' E 120°19'0 0.0
2017-Feb-18 22:32N 22°34' E 120°19'0 0.0
2017-Feb-18 21:32N 22°34' E 120°19'0 0.0
2017-Feb-18 20:32N 22°34' E 120°19'0 0.0
2017-Feb-18 19:32N 22°34' E 120°19'0 0.0
2017-Feb-18 18:32N 22°34' E 120°19'0 0.0
2017-Feb-18 17:32N 22°34' E 120°19'0 0.0
2017-Feb-18 16:32N 22°34' E 120°19'0 0.0
2017-Feb-18 15:32N 22°34' E 120°19'1 0.6
2017-Feb-18 14:33N 22°34' E 120°19'5 5.5
2017-Feb-18 13:33N 22°33' E 120°13'1514.7
2017-Feb-18 12:33N 22°45' E 120°05'11217.0
2017-Feb-18 06:00N 24°36' E 120°18'12120.1 020 / 231021.7 2.2 16.512.115.2
2017-Feb-18 00:00N 26°24' E 121°18'215 6.8 030 / 261026.7 2.2 12.610.015.5
2017-Feb-16 16:23N 29°57' E 121°50'6 5.8
2017-Feb-16 15:21N 29°59' E 121°57'  
Track history (hours):
 
Tides and Currents Weather Stations Pressure Air Temp Water Temp Dewpoint Dewpoint Depression Visibility Wind Speed Wind Dir Waves Ship Positions

Hamburg Express

Last reported at 2017-Feb-25 06:33 UTC. Time now 2017-Feb-25 07:26 UTC.
Position N 01°41' E 102°46'.

Length 366 m; draft 15 m.

Type: Cargo ship. MMSI: 218774000.

Date/timePositionNaut miles runAvg speedWind from/ knotsBaromVisibWave heightAir tempDewpointWater temp
2017-Feb-25 06:33N 01°41' E 102°46'5117.1
2017-Feb-25 03:33N 01°13' E 103°29'1414.3
2017-Feb-25 02:33N 01°09' E 103°43'1010.5
2017-Feb-25 01:33N 01°13' E 103°52'4 3.2
2017-Feb-25 00:25N 01°16' E 103°50'0 0.1
2017-Feb-24 23:31N 01°16' E 103°50'0 0.0
2017-Feb-24 22:28N 01°16' E 103°50'0 0.0
2017-Feb-24 21:31N 01°16' E 103°50'0 0.0
2017-Feb-24 20:31N 01°16' E 103°50'0 0.0
2017-Feb-24 19:25N 01°16' E 103°50'0 0.0
2017-Feb-24 18:31N 01°16' E 103°50'0 0.0
2017-Feb-24 17:31N 01°16' E 103°50'0 0.0
2017-Feb-24 16:31N 01°16' E 103°50'0 0.0
2017-Feb-24 15:31N 01°16' E 103°50'0 0.0
2017-Feb-24 14:31N 01°16' E 103°50'0 0.0
2017-Feb-24 13:28N 01°16' E 103°50'0 0.0
2017-Feb-24 12:31N 01°16' E 103°50'0 0.0
2017-Feb-24 11:31N 01°16' E 103°50'0 0.0
2017-Feb-24 10:31N 01°16' E 103°50'0 0.0
2017-Feb-24 09:31N 01°16' E 103°50'0 0.0
2017-Feb-24 08:31N 01°16' E 103°50'0 0.0
2017-Feb-24 07:31N 01°16' E 103°50'0 0.0
2017-Feb-24 06:31N 01°16' E 103°50'0 0.0
2017-Feb-24 05:31N 01°16' E 103°50'0 0.0
2017-Feb-24 04:31N 01°16' E 103°50'0 0.0
2017-Feb-24 03:31N 01°16' E 103°50'0 0.0
2017-Feb-24 02:33N 01°16' E 103°50'1 1.4
2017-Feb-24 01:33N 01°15' E 103°51'3 2.7
2017-Feb-24 00:33N 01°14' E 103°53'5 4.7
2017-Feb-23 23:33N 01°15' E 103°58'1613.1
2017-Feb-23 22:21N 01°18' E 104°14'19018.4
2017-Feb-23 12:00N 04°06' E 105°42'10317.2 040 / 141011.4 5.4 25.923.425.9
2017-Feb-23 06:00N 05°30' E 106°42'22819.0 360 / 61013.0 5.4 29.423.825.2
2017-Feb-22 18:00N 08°48' E 108°36'   070 / 151012.510.8 25.224.324.8
2017-Feb-19 08:30N 22°28' E 119°45'1819.2
2017-Feb-19 07:33N 22°31' E 120°05'1413.8
2017-Feb-19 06:33N 22°33' E 120°19'1 1.3
2017-Feb-19 05:32N 22°34' E 120°19'0 0.0
2017-Feb-19 04:29N 22°34' E 120°19'0 0.0
2017-Feb-19 03:32N 22°34' E 120°19'0 0.0
2017-Feb-19 02:32N 22°34' E 120°19'0 0.0
2017-Feb-19 01:32N 22°34' E 120°19'0 0.0
2017-Feb-19 00:29N 22°34' E 120°19'0 0.0
2017-Feb-18 22:32N 22°34' E 120°19'0 0.0
2017-Feb-18 21:32N 22°34' E 120°19'0 0.0
2017-Feb-18 20:32N 22°34' E 120°19'0 0.0
2017-Feb-18 19:32N 22°34' E 120°19'0 0.0
2017-Feb-18 18:32N 22°34' E 120°19'0 0.0
2017-Feb-18 17:32N 22°34' E 120°19'0 0.0
2017-Feb-18 16:32N 22°34' E 120°19'0 0.0
2017-Feb-18 15:32N 22°34' E 120°19'1 0.6
2017-Feb-18 14:33N 22°34' E 120°19'5 5.5
2017-Feb-18 13:33N 22°33' E 120°13'1514.7
2017-Feb-18 12:33N 22°45' E 120°05'11217.0
2017-Feb-18 06:00N 24°36' E 120°18'12120.1 020 / 231021.7 2.2 16.512.115.2
2017-Feb-18 00:00N 26°24' E 121°18'215 6.8 030 / 261026.7 2.2 12.610.015.5
2017-Feb-16 16:23N 29°57' E 121°50'6 5.8
2017-Feb-16 15:21N 29°59' E 121°57'  

Dump ship's entire track history